Time;durP1;ratioP1;P1;durP2;ratioP2;P2;SDS_P1;SDS_P2;PMS_P1;PMS_P2;Temp;Humidity;BMP_temperature;BMP_pressure;BME280_temperature;BME280_humidity;BME280_pressure;Samples;Min_cycle;Max_cycle;Signal;HPM_P1;HPM_P2
2022/07/09 00:00:52;;;;;;;3.83;2.83;;;;;;;;;;5095726;28;20024;-72
2022/07/09 00:03:18;;;;;;;4.38;3.00;;;;;;;;;;5091680;28;20390;-72
2022/07/09 00:05:44;;;;;;;3.88;3.17;;;;;;;;;;5090711;28;20024;-72
2022/07/09 00:08:10;;;;;;;2.70;2.45;;;;;;;;;;5090146;28;20055;-73
2022/07/09 00:10:36;;;;;;;2.97;2.55;;;;;;;;;;5088831;28;20035;-72
2022/07/09 00:13:02;;;;;;;3.67;3.20;;;;;;;;;;5087580;28;20649;-72
2022/07/09 00:15:28;;;;;;;2.85;2.20;;;;;;;;;;5083774;28;20118;-73
2022/07/09 00:17:54;;;;;;;4.50;2.85;;;;;;;;;;5080510;28;20027;-71
2022/07/09 00:20:21;;;;;;;3.15;2.30;;;;;;;;;;5087476;28;20108;-72
2022/07/09 00:22:47;;;;;;;5.25;2.65;;;;;;;;;;5079204;28;20418;-72
2022/07/09 00:25:13;;;;;;;3.78;2.67;;;;;;;;;;5084275;28;20024;-72
2022/07/09 00:27:39;;;;;;;3.38;2.33;;;;;;;;;;5087539;28;20028;-72
2022/07/09 00:30:05;;;;;;;3.45;2.63;;;;;;;;;;5092587;28;20067;-72
2022/07/09 00:32:31;;;;;;;5.10;2.65;;;;;;;;;;5087346;28;20366;-72
2022/07/09 00:34:57;;;;;;;3.22;2.47;;;;;;;;;;5086406;28;20027;-73
2022/07/09 00:37:23;;;;;;;5.05;2.63;;;;;;;;;;5086940;28;20024;-72
2022/07/09 00:39:49;;;;;;;2.95;2.60;;;;;;;;;;5086966;28;20093;-72
2022/07/09 00:42:15;;;;;;;3.63;2.47;;;;;;;;;;5083318;28;20152;-72
2022/07/09 00:44:41;;;;;;;4.05;2.50;;;;;;;;;;5085176;28;20020;-73
2022/07/09 00:47:08;;;;;;;3.20;2.50;;;;;;;;;;5080993;28;20024;-72
2022/07/09 00:49:42;;;;;;;4.43;2.83;;;;;;;;;;5083046;28;20152;-73
2022/07/09 00:52:10;;;;;;;4.75;2.85;;;;;;;;;;5094178;28;20050;-71
2022/07/09 00:54:36;;;;;;;5.95;2.90;;;;;;;;;;5086888;28;20027;-72
2022/07/09 00:57:04;;;;;;;5.05;3.55;;;;;;;;;;5090823;28;20030;-72
2022/07/09 00:59:30;;;;;;;3.55;3.00;;;;;;;;;;5085002;28;20028;-73
2022/07/09 01:01:56;;;;;;;4.15;3.05;;;;;;;;;;5085546;28;20028;-72
2022/07/09 01:04:22;;;;;;;3.50;2.80;;;;;;;;;;5086632;28;20032;-72
2022/07/09 01:06:49;;;;;;;4.10;2.67;;;;;;;;;;5085345;28;20036;-72
2022/07/09 01:09:15;;;;;;;3.10;2.67;;;;;;;;;;5087850;28;20024;-72
2022/07/09 01:11:41;;;;;;;3.53;2.80;;;;;;;;;;5087714;28;20563;-72
2022/07/09 01:14:07;;;;;;;3.42;2.40;;;;;;;;;;5081217;28;20036;-71
2022/07/09 01:16:34;;;;;;;3.60;2.63;;;;;;;;;;5076611;28;20055;-74
2022/07/09 01:19:01;;;;;;;4.32;2.80;;;;;;;;;;5084969;28;20036;-72
2022/07/09 01:21:27;;;;;;;3.00;2.60;;;;;;;;;;5091993;28;20055;-74
2022/07/09 01:23:53;;;;;;;4.78;2.72;;;;;;;;;;5084671;28;20958;-72
2022/07/09 01:26:19;;;;;;;4.10;2.63;;;;;;;;;;5087083;28;20512;-72
2022/07/09 01:28:46;;;;;;;3.63;2.72;;;;;;;;;;5092688;28;20020;-72
2022/07/09 01:31:12;;;;;;;4.57;2.70;;;;;;;;;;5092617;28;20028;-73
2022/07/09 01:33:39;;;;;;;4.80;2.92;;;;;;;;;;5087568;28;20031;-71
2022/07/09 01:36:06;;;;;;;4.93;2.97;;;;;;;;;;5093741;28;20295;-73
2022/07/09 01:38:32;;;;;;;4.60;2.95;;;;;;;;;;5088161;28;20533;-72
2022/07/09 01:40:58;;;;;;;3.28;2.97;;;;;;;;;;5092045;28;20436;-73
2022/07/09 01:43:24;;;;;;;4.20;2.70;;;;;;;;;;5086481;28;20055;-72
2022/07/09 01:45:50;;;;;;;3.60;3.17;;;;;;;;;;5088490;28;20468;-71
2022/07/09 01:48:16;;;;;;;4.53;3.22;;;;;;;;;;5088262;28;20477;-70
2022/07/09 01:50:42;;;;;;;6.90;2.90;;;;;;;;;;5081154;28;20051;-72
2022/07/09 01:53:08;;;;;;;3.40;2.78;;;;;;;;;;5087810;28;20139;-71
2022/07/09 01:55:34;;;;;;;3.95;3.17;;;;;;;;;;5088331;28;20394;-72
2022/07/09 01:58:00;;;;;;;4.72;2.92;;;;;;;;;;5091092;28;20111;-72
2022/07/09 02:00:29;;;;;;;3.28;2.60;;;;;;;;;;5083552;28;20032;-72
2022/07/09 02:02:56;;;;;;;3.58;2.63;;;;;;;;;;5086934;28;20148;-70
2022/07/09 02:05:22;;;;;;;3.75;2.58;;;;;;;;;;5086941;28;20035;-73
2022/07/09 02:07:49;;;;;;;3.95;2.65;;;;;;;;;;5088219;28;20020;-74
2022/07/09 02:10:15;;;;;;;5.30;3.22;;;;;;;;;;5087087;28;20032;-73
2022/07/09 02:12:41;;;;;;;5.80;2.63;;;;;;;;;;5088144;28;20549;-74
2022/07/09 02:15:08;;;;;;;3.53;2.50;;;;;;;;;;5095101;28;20076;-72
2022/07/09 02:17:34;;;;;;;3.00;2.50;;;;;;;;;;5087064;28;20028;-72
2022/07/09 02:20:00;;;;;;;4.85;2.80;;;;;;;;;;5095416;28;20040;-72
2022/07/09 02:22:27;;;;;;;4.30;2.47;;;;;;;;;;5088039;28;20023;-71
2022/07/09 02:24:53;;;;;;;4.10;2.70;;;;;;;;;;5087495;28;20070;-71
2022/07/09 02:27:19;;;;;;;3.80;2.90;;;;;;;;;;5090886;28;20115;-72
2022/07/09 02:29:45;;;;;;;4.88;2.85;;;;;;;;;;5091926;28;20024;-71
2022/07/09 02:32:11;;;;;;;3.58;2.60;;;;;;;;;;5091794;28;20032;-72
2022/07/09 02:34:38;;;;;;;4.65;2.60;;;;;;;;;;5089265;28;20042;-72
2022/07/09 02:37:05;;;;;;;3.78;2.47;;;;;;;;;;5091308;28;20115;-73
2022/07/09 02:39:31;;;;;;;4.57;3.25;;;;;;;;;;5089855;28;20023;-74
2022/07/09 02:41:57;;;;;;;4.00;3.40;;;;;;;;;;5095331;28;21569;-72
2022/07/09 02:44:23;;;;;;;5.65;3.97;;;;;;;;;;5089229;28;20030;-72
2022/07/09 02:46:49;;;;;;;10.63;6.60;;;;;;;;;;5090885;28;20028;-71
2022/07/09 02:49:15;;;;;;;7.45;5.57;;;;;;;;;;5089810;28;20047;-71
2022/07/09 02:51:41;;;;;;;11.15;5.78;;;;;;;;;;5088203;28;20032;-72
2022/07/09 02:54:07;;;;;;;8.70;5.93;;;;;;;;;;5088557;28;20038;-72
2022/07/09 02:56:33;;;;;;;8.55;5.80;;;;;;;;;;5093363;28;20055;-71
2022/07/09 02:58:59;;;;;;;6.40;3.70;;;;;;;;;;5092198;28;20043;-72
2022/07/09 03:01:26;;;;;;;4.45;3.38;;;;;;;;;;5087692;28;20028;-72
2022/07/09 03:03:52;;;;;;;4.60;3.65;;;;;;;;;;5091455;28;20020;-71
2022/07/09 03:06:18;;;;;;;4.78;3.40;;;;;;;;;;5091497;28;20474;-71
2022/07/09 03:08:44;;;;;;;5.25;4.03;;;;;;;;;;5087360;28;20032;-74
2022/07/09 03:11:11;;;;;;;4.60;2.92;;;;;;;;;;5096515;28;20145;-72
2022/07/09 03:13:37;;;;;;;6.13;3.22;;;;;;;;;;5084956;28;20023;-72
2022/07/09 03:16:04;;;;;;;4.70;3.08;;;;;;;;;;5089382;28;20401;-71
2022/07/09 03:18:30;;;;;;;4.38;2.78;;;;;;;;;;5091590;28;20028;-72
2022/07/09 03:20:56;;;;;;;6.20;3.20;;;;;;;;;;5087931;28;20055;-72
2022/07/09 03:23:22;;;;;;;3.42;2.72;;;;;;;;;;5088421;28;20055;-73
2022/07/09 03:25:49;;;;;;;5.00;3.17;;;;;;;;;;5093152;28;20035;-72
2022/07/09 03:28:15;;;;;;;4.68;2.92;;;;;;;;;;5090919;28;20056;-72
2022/07/09 03:30:41;;;;;;;4.95;3.30;;;;;;;;;;5087096;28;20128;-72
2022/07/09 03:33:07;;;;;;;5.97;3.47;;;;;;;;;;5090963;28;20548;-71
2022/07/09 03:35:33;;;;;;;4.95;3.35;;;;;;;;;;5088870;28;20055;-72
2022/07/09 03:37:59;;;;;;;6.18;3.85;;;;;;;;;;5084853;28;20028;-73
2022/07/09 03:40:26;;;;;;;5.00;4.03;;;;;;;;;;5084949;28;20027;-71
2022/07/09 03:42:52;;;;;;;6.95;4.35;;;;;;;;;;5089745;28;20456;-72
2022/07/09 03:45:18;;;;;;;5.82;4.30;;;;;;;;;;5091934;28;20330;-71
2022/07/09 03:47:44;;;;;;;8.75;4.47;;;;;;;;;;5087406;28;20027;-72
2022/07/09 03:50:12;;;;;;;6.85;4.85;;;;;;;;;;5094873;28;20047;-72
2022/07/09 03:52:38;;;;;;;7.15;5.07;;;;;;;;;;5088472;28;20012;-72
2022/07/09 03:55:05;;;;;;;7.03;4.10;;;;;;;;;;5088680;28;20031;-71
2022/07/09 03:57:31;;;;;;;3.83;3.40;;;;;;;;;;5086680;28;20031;-72
2022/07/09 03:59:57;;;;;;;6.93;3.63;;;;;;;;;;5086488;28;20106;-74
2022/07/09 04:02:23;;;;;;;4.90;3.00;;;;;;;;;;5089782;28;20035;-73
2022/07/09 04:04:49;;;;;;;4.47;3.33;;;;;;;;;;5091382;28;20020;-74
2022/07/09 04:07:15;;;;;;;6.75;4.05;;;;;;;;;;5086033;28;20099;-73
2022/07/09 04:09:41;;;;;;;6.38;3.30;;;;;;;;;;5088012;28;20031;-72
2022/07/09 04:12:07;;;;;;;5.95;4.85;;;;;;;;;;5092937;28;20028;-72
2022/07/09 04:14:34;;;;;;;4.95;3.33;;;;;;;;;;5086952;28;20020;-71
2022/07/09 04:17:00;;;;;;;6.35;4.07;;;;;;;;;;5093780;28;20776;-71
2022/07/09 04:19:26;;;;;;;5.60;3.67;;;;;;;;;;5091076;28;20035;-72
2022/07/09 04:21:52;;;;;;;4.45;3.67;;;;;;;;;;5091214;28;20114;-74
2022/07/09 04:24:18;;;;;;;4.47;3.17;;;;;;;;;;5082575;28;20477;-71
2022/07/09 04:26:44;;;;;;;4.55;2.95;;;;;;;;;;5091058;28;20063;-72
2022/07/09 04:29:13;;;;;;;4.63;3.30;;;;;;;;;;5093400;28;20038;-71
2022/07/09 04:31:39;;;;;;;4.43;3.10;;;;;;;;;;5083026;28;20374;-71
2022/07/09 04:34:05;;;;;;;5.13;3.15;;;;;;;;;;5088179;28;20088;-72
2022/07/09 04:36:32;;;;;;;5.25;3.08;;;;;;;;;;5087791;28;20037;-72
2022/07/09 04:38:58;;;;;;;5.68;3.20;;;;;;;;;;5091974;28;20026;-72
2022/07/09 04:41:24;;;;;;;4.38;2.70;;;;;;;;;;5089692;28;20101;-72
2022/07/09 04:43:50;;;;;;;4.88;2.80;;;;;;;;;;5092547;28;20054;-72
2022/07/09 04:46:16;;;;;;;4.13;2.70;;;;;;;;;;5094554;28;20020;-71
2022/07/09 04:48:42;;;;;;;4.70;2.95;;;;;;;;;;5091945;28;20476;-72
2022/07/09 04:51:08;;;;;;;3.78;2.75;;;;;;;;;;5089643;28;20059;-71
2022/07/09 04:53:35;;;;;;;4.53;2.60;;;;;;;;;;5084538;28;20054;-71
2022/07/09 04:56:01;;;;;;;4.65;2.70;;;;;;;;;;5085252;28;20035;-71
2022/07/09 04:58:27;;;;;;;3.55;2.92;;;;;;;;;;5082726;28;20059;-72
2022/07/09 05:00:53;;;;;;;4.70;2.80;;;;;;;;;;5088562;28;20024;-71
2022/07/09 05:03:19;;;;;;;3.53;2.42;;;;;;;;;;5086363;28;20026;-71
2022/07/09 05:05:45;;;;;;;3.67;2.70;;;;;;;;;;5089931;28;20032;-70
2022/07/09 05:08:11;;;;;;;3.47;2.70;;;;;;;;;;5088878;28;20054;-72
2022/07/09 05:10:38;;;;;;;3.35;2.70;;;;;;;;;;5092932;28;20055;-72
2022/07/09 05:13:04;;;;;;;5.18;2.85;;;;;;;;;;5088710;28;20031;-71
2022/07/09 05:15:32;;;;;;;3.95;2.67;;;;;;;;;;5092467;28;20039;-71
2022/07/09 05:17:58;;;;;;;2.83;2.45;;;;;;;;;;5087987;28;20036;-70
2022/07/09 05:20:24;;;;;;;6.00;2.75;;;;;;;;;;5094496;28;20027;-72
2022/07/09 05:22:50;;;;;;;3.38;2.72;;;;;;;;;;5085585;28;20055;-71
2022/07/09 05:25:16;;;;;;;4.38;2.97;;;;;;;;;;5082474;28;20024;-72
2022/07/09 05:27:44;;;;;;;4.70;2.60;;;;;;;;;;5084766;28;20015;-71
2022/07/09 05:30:10;;;;;;;5.22;2.75;;;;;;;;;;5091178;28;20548;-71
2022/07/09 05:32:36;;;;;;;5.50;4.15;;;;;;;;;;5095470;28;20497;-71
2022/07/09 05:35:03;;;;;;;4.30;3.13;;;;;;;;;;5086777;28;20415;-71
2022/07/09 05:37:29;;;;;;;4.40;3.25;;;;;;;;;;5091560;28;20466;-71
2022/07/09 05:39:57;;;;;;;7.68;3.20;;;;;;;;;;5095859;28;20069;-70
2022/07/09 05:42:24;;;;;;;4.65;2.88;;;;;;;;;;5094699;28;20130;-70
2022/07/09 05:44:50;;;;;;;3.78;3.00;;;;;;;;;;5091681;28;20029;-71
2022/07/09 05:47:16;;;;;;;3.35;2.80;;;;;;;;;;5092536;28;20077;-71
2022/07/09 05:49:42;;;;;;;3.33;2.70;;;;;;;;;;5099628;28;20457;-71
2022/07/09 05:52:08;;;;;;;3.60;2.90;;;;;;;;;;5097196;28;20028;-70
2022/07/09 05:54:36;;;;;;;4.00;2.83;;;;;;;;;;5094843;28;20036;-71
2022/07/09 05:57:02;;;;;;;3.80;2.85;;;;;;;;;;5094447;28;20036;-71
2022/07/09 05:59:28;;;;;;;4.60;3.47;;;;;;;;;;5094118;28;20547;-72
2022/07/09 06:01:54;;;;;;;5.00;3.08;;;;;;;;;;5094860;28;20047;-72
2022/07/09 06:04:20;;;;;;;4.43;2.70;;;;;;;;;;5093239;28;20028;-70
2022/07/09 06:06:46;;;;;;;6.20;3.08;;;;;;;;;;5096003;28;20069;-71
2022/07/09 06:09:12;;;;;;;6.55;3.15;;;;;;;;;;5094407;28;20030;-71
2022/07/09 06:11:38;;;;;;;4.28;2.50;;;;;;;;;;5092934;28;20028;-71
2022/07/09 06:14:04;;;;;;;5.05;3.53;;;;;;;;;;5091619;28;20111;-71
2022/07/09 06:16:30;;;;;;;4.18;3.28;;;;;;;;;;5093401;28;20042;-71
2022/07/09 06:18:56;;;;;;;5.20;3.20;;;;;;;;;;5089942;28;20034;-71
2022/07/09 06:21:22;;;;;;;4.70;3.53;;;;;;;;;;5092315;28;20028;-71
2022/07/09 06:23:48;;;;;;;4.03;2.83;;;;;;;;;;5095776;28;20024;-71
2022/07/09 06:26:14;;;;;;;4.50;2.70;;;;;;;;;;5096213;28;20111;-72
2022/07/09 06:28:41;;;;;;;4.28;3.47;;;;;;;;;;5088246;28;20028;-70
2022/07/09 06:31:07;;;;;;;4.18;2.75;;;;;;;;;;5095460;28;20167;-71
2022/07/09 06:33:33;;;;;;;3.45;2.70;;;;;;;;;;5096982;28;20031;-71
2022/07/09 06:35:59;;;;;;;4.07;2.95;;;;;;;;;;5095432;28;20540;-72
2022/07/09 06:38:28;;;;;;;3.83;2.60;;;;;;;;;;5094609;27;20598;-70
2022/07/09 06:40:58;;;;;;;3.17;2.80;;;;;;;;;;5091908;28;20031;-71
2022/07/09 06:43:24;;;;;;;3.38;2.60;;;;;;;;;;5086206;28;20139;-72
2022/07/09 06:45:50;;;;;;;4.32;2.75;;;;;;;;;;5093131;28;20052;-71
2022/07/09 06:48:16;;;;;;;5.75;2.92;;;;;;;;;;5099284;27;20031;-72
2022/07/09 06:50:42;;;;;;;2.75;2.50;;;;;;;;;;5090169;28;20626;-71
2022/07/09 06:53:08;;;;;;;3.67;2.60;;;;;;;;;;5094827;28;20186;-71
2022/07/09 06:55:34;;;;;;;5.95;3.00;;;;;;;;;;5096167;28;20035;-72
2022/07/09 06:58:00;;;;;;;3.67;2.60;;;;;;;;;;5091639;28;20042;-72
2022/07/09 07:00:26;;;;;;;5.80;2.97;;;;;;;;;;5093448;28;20062;-72
2022/07/09 07:02:52;;;;;;;3.58;2.67;;;;;;;;;;5093447;28;20020;-71
2022/07/09 07:05:18;;;;;;;4.15;3.30;;;;;;;;;;5086607;28;20028;-71
2022/07/09 07:07:44;;;;;;;4.65;3.30;;;;;;;;;;5096746;28;20027;-72
2022/07/09 07:10:11;;;;;;;3.80;2.88;;;;;;;;;;5083620;28;20448;-72
2022/07/09 07:12:37;;;;;;;4.32;2.97;;;;;;;;;;5086523;28;20378;-72
2022/07/09 07:15:03;;;;;;;4.60;2.90;;;;;;;;;;5088510;28;20028;-72
2022/07/09 07:17:29;;;;;;;4.38;2.75;;;;;;;;;;5085609;28;20028;-72
2022/07/09 07:19:55;;;;;;;3.78;2.60;;;;;;;;;;5092495;28;20039;-72
2022/07/09 07:22:21;;;;;;;3.15;2.72;;;;;;;;;;5088118;28;20353;-73
2022/07/09 07:24:47;;;;;;;3.83;2.58;;;;;;;;;;5091421;28;20401;-72
2022/07/09 07:27:13;;;;;;;2.97;2.42;;;;;;;;;;5089648;28;20020;-71
2022/07/09 07:29:39;;;;;;;3.38;2.30;;;;;;;;;;5086570;28;20050;-70
2022/07/09 07:32:06;;;;;;;3.67;2.30;;;;;;;;;;5094303;28;20130;-70
2022/07/09 07:34:32;;;;;;;4.85;2.67;;;;;;;;;;5086970;28;20031;-72
2022/07/09 07:36:58;;;;;;;2.30;2.10;;;;;;;;;;5092821;28;20533;-71
2022/07/09 07:39:26;;;;;;;3.88;2.50;;;;;;;;;;5090159;28;20023;-71
2022/07/09 07:41:52;;;;;;;3.50;2.20;;;;;;;;;;5096231;28;20028;-71
2022/07/09 07:44:19;;;;;;;3.65;2.20;;;;;;;;;;5091031;28;20024;-72
2022/07/09 07:46:45;;;;;;;2.20;2.00;;;;;;;;;;5091526;28;20020;-72
2022/07/09 07:49:11;;;;;;;8.30;2.40;;;;;;;;;;5088173;28;20024;-71
2022/07/09 07:51:37;;;;;;;2.78;2.25;;;;;;;;;;5089501;28;20031;-71
2022/07/09 07:54:03;;;;;;;4.50;2.65;;;;;;;;;;5096674;28;20038;-71
2022/07/09 07:56:30;;;;;;;3.20;2.20;;;;;;;;;;5091309;28;20050;-71
2022/07/09 07:58:58;;;;;;;2.30;2.03;;;;;;;;;;5084356;28;20097;-73
2022/07/09 08:01:24;;;;;;;2.40;2.05;;;;;;;;;;5084916;28;20395;-74
2022/07/09 08:03:50;;;;;;;3.15;2.17;;;;;;;;;;5087206;28;20024;-73
2022/07/09 08:06:16;;;;;;;2.10;1.90;;;;;;;;;;5088994;28;20023;-72
2022/07/09 08:08:42;;;;;;;2.50;2.30;;;;;;;;;;5093878;28;20053;-72
2022/07/09 08:11:08;;;;;;;2.95;2.10;;;;;;;;;;5093125;28;20490;-73
2022/07/09 08:13:34;;;;;;;1.98;1.77;;;;;;;;;;5087456;28;20039;-72
2022/07/09 08:16:02;;;;;;;2.38;2.08;;;;;;;;;;5094301;28;20077;-72
2022/07/09 08:18:28;;;;;;;3.45;2.08;;;;;;;;;;5086031;28;20024;-72
2022/07/09 08:20:54;;;;;;;2.55;1.98;;;;;;;;;;5088913;28;20468;-71
2022/07/09 08:23:20;;;;;;;2.42;1.95;;;;;;;;;;5089228;28;20063;-71
2022/07/09 08:25:46;;;;;;;2.13;1.92;;;;;;;;;;5097855;28;20072;-72
2022/07/09 08:28:12;;;;;;;3.75;2.05;;;;;;;;;;5084917;28;20027;-73
2022/07/09 08:30:38;;;;;;;2.83;2.10;;;;;;;;;;5091341;28;20033;-73
2022/07/09 08:33:04;;;;;;;2.78;1.80;;;;;;;;;;5091007;28;20056;-73
2022/07/09 08:35:31;;;;;;;3.65;2.55;;;;;;;;;;5085993;28;20035;-72
2022/07/09 08:37:57;;;;;;;2.92;2.10;;;;;;;;;;5089660;28;20517;-72
2022/07/09 08:40:24;;;;;;;2.78;2.00;;;;;;;;;;5089018;28;20274;-71
2022/07/09 08:42:50;;;;;;;2.20;1.80;;;;;;;;;;5085661;28;20086;-71
2022/07/09 08:45:17;;;;;;;1.80;1.70;;;;;;;;;;5087819;28;20024;-71
2022/07/09 08:47:43;;;;;;;2.10;1.90;;;;;;;;;;5087732;28;20023;-71
2022/07/09 08:50:11;;;;;;;1.80;1.70;;;;;;;;;;5088500;28;20032;-71
2022/07/09 08:52:39;;;;;;;2.75;1.80;;;;;;;;;;5086370;28;20031;-71
2022/07/09 08:55:07;;;;;;;2.00;1.90;;;;;;;;;;5092150;28;20020;-73
2022/07/09 08:57:33;;;;;;;1.95;1.80;;;;;;;;;;5091338;28;20137;-73
2022/07/09 09:00:00;;;;;;;2.83;2.00;;;;;;;;;;5093932;28;20020;-71
2022/07/09 09:02:26;;;;;;;2.35;2.03;;;;;;;;;;5092640;28;20039;-73
2022/07/09 09:04:55;;;;;;;2.45;2.03;;;;;;;;;;5087998;28;20099;-72
2022/07/09 09:07:21;;;;;;;2.15;1.95;;;;;;;;;;5094947;28;20035;-73
2022/07/09 09:09:48;;;;;;;2.30;1.90;;;;;;;;;;5093304;28;20027;-73
2022/07/09 09:12:14;;;;;;;2.40;2.10;;;;;;;;;;5091829;28;20039;-73
2022/07/09 09:14:48;;;;;;;2.13;1.92;;;;;;;;;;5095642;28;20032;-73
2022/07/09 09:17:15;;;;;;;3.58;2.90;;;;;;;;;;5095018;28;20066;-71
2022/07/09 09:19:41;;;;;;;2.22;2.03;;;;;;;;;;5087379;28;20039;-72
2022/07/09 09:22:09;;;;;;;7.43;2.40;;;;;;;;;;5092996;28;20114;-71
2022/07/09 09:24:35;;;;;;;2.50;2.13;;;;;;;;;;5090024;28;20705;-73
2022/07/09 09:27:01;;;;;;;2.95;2.40;;;;;;;;;;5090276;28;20078;-71
2022/07/09 09:29:28;;;;;;;2.40;2.05;;;;;;;;;;5092473;28;20217;-71
2022/07/09 09:31:55;;;;;;;2.90;2.08;;;;;;;;;;5089314;28;20027;-71
2022/07/09 09:34:22;;;;;;;4.80;2.20;;;;;;;;;;5095115;28;20028;-72
2022/07/09 09:36:50;;;;;;;3.47;2.17;;;;;;;;;;5091008;28;20039;-71
2022/07/09 09:39:16;;;;;;;2.15;1.92;;;;;;;;;;5094758;28;20060;-71
2022/07/09 09:41:44;;;;;;;3.22;1.90;;;;;;;;;;5088881;28;20134;-71
2022/07/09 09:44:11;;;;;;;2.20;1.80;;;;;;;;;;5090200;28;20054;-71
2022/07/09 09:46:38;;;;;;;2.20;2.00;;;;;;;;;;5097433;28;20756;-71
2022/07/09 09:49:07;;;;;;;2.22;1.90;;;;;;;;;;5094208;28;20102;-72
2022/07/09 09:51:35;;;;;;;2.30;2.10;;;;;;;;;;5091324;28;20371;-70
2022/07/09 09:54:03;;;;;;;2.17;1.98;;;;;;;;;;5094805;28;20020;-70
2022/07/09 09:56:29;;;;;;;2.35;2.03;;;;;;;;;;5093165;28;20501;-71
2022/07/09 09:58:56;;;;;;;2.40;2.20;;;;;;;;;;5093914;28;20044;-71
2022/07/09 10:01:22;;;;;;;2.85;2.22;;;;;;;;;;5090792;28;20031;-71
2022/07/09 10:03:49;;;;;;;2.55;2.00;;;;;;;;;;5102518;28;20416;-70
2022/07/09 10:06:15;;;;;;;4.93;2.30;;;;;;;;;;5093289;28;20035;-70
2022/07/09 10:08:41;;;;;;;2.22;2.03;;;;;;;;;;5097854;28;20030;-71
2022/07/09 10:11:07;;;;;;;2.28;2.08;;;;;;;;;;5094353;28;20031;-70
2022/07/09 10:13:33;;;;;;;2.00;1.80;;;;;;;;;;5089135;28;20024;-70
2022/07/09 10:16:00;;;;;;;2.35;2.15;;;;;;;;;;5096043;28;20422;-70
2022/07/09 10:18:26;;;;;;;2.28;2.00;;;;;;;;;;5093451;28;20388;-70
2022/07/09 10:20:56;;;;;;;2.88;2.30;;;;;;;;;;5096086;28;20402;-70
2022/07/09 10:23:26;;;;;;;2.95;2.28;;;;;;;;;;5099683;28;20030;-70
2022/07/09 10:25:55;;;;;;;2.70;2.20;;;;;;;;;;5093126;28;20262;-71
2022/07/09 10:28:22;;;;;;;2.33;2.00;;;;;;;;;;5097722;28;20031;-70
2022/07/09 10:30:48;;;;;;;4.00;2.20;;;;;;;;;;5102853;28;20473;-71
2022/07/09 10:33:21;;;;;;;2.33;1.98;;;;;;;;;;5102706;28;20036;-70
2022/07/09 10:35:49;;;;;;;2.50;2.15;;;;;;;;;;5098817;28;20481;-70
2022/07/09 10:38:16;;;;;;;2.13;1.92;;;;;;;;;;5097726;28;20036;-71
2022/07/09 10:40:49;;;;;;;2.22;1.90;;;;;;;;;;5100924;28;20859;-71
2022/07/09 10:43:15;;;;;;;2.00;1.80;;;;;;;;;;5096946;28;20044;-72
2022/07/09 10:45:42;;;;;;;3.05;2.15;;;;;;;;;;5089031;28;20362;-72
2022/07/09 10:48:09;;;;;;;2.53;1.98;;;;;;;;;;5100059;28;20099;-71
2022/07/09 10:50:53;;;;;;;2.00;1.80;;;;;;;;;;5092646;28;20095;-71
2022/07/09 10:53:29;;;;;;;2.72;1.92;;;;;;;;;;5091954;28;20032;-72
2022/07/09 10:55:55;;;;;;;3.17;2.00;;;;;;;;;;5094328;28;20024;-72
2022/07/09 10:58:21;;;;;;;4.07;2.60;;;;;;;;;;5099286;28;20503;-71
2022/07/09 11:01:02;;;;;;;2.75;2.10;;;;;;;;;;5092654;28;20105;-72
2022/07/09 11:03:29;;;;;;;2.22;1.80;;;;;;;;;;5095230;28;20119;-72
2022/07/09 11:05:55;;;;;;;3.30;1.95;;;;;;;;;;5102141;28;20020;-72
2022/07/09 11:08:22;;;;;;;2.03;1.70;;;;;;;;;;5095619;28;20024;-72
2022/07/09 11:10:48;;;;;;;1.80;1.70;;;;;;;;;;5096936;28;20119;-72
2022/07/09 11:13:14;;;;;;;2.92;2.00;;;;;;;;;;5091447;28;20401;-74
2022/07/09 11:15:41;;;;;;;2.25;1.90;;;;;;;;;;5095584;28;20027;-72
2022/07/09 11:18:08;;;;;;;2.20;2.00;;;;;;;;;;5091664;28;20031;-74
2022/07/09 11:20:41;;;;;;;2.10;1.90;;;;;;;;;;5092307;28;20171;-71
2022/07/09 11:23:11;;;;;;;2.20;2.00;;;;;;;;;;5095971;28;20019;-73
2022/07/09 11:25:37;;;;;;;2.85;2.20;;;;;;;;;;5102646;28;20477;-72
2022/07/09 11:28:03;;;;;;;1.88;1.77;;;;;;;;;;5098235;28;20024;-73
2022/07/09 11:30:32;;;;;;;2.50;2.00;;;;;;;;;;5091993;28;20036;-73
2022/07/09 11:32:58;;;;;;;2.22;1.98;;;;;;;;;;5097743;28;20496;-73
2022/07/09 11:35:31;;;;;;;2.85;1.85;;;;;;;;;;5100121;28;20032;-74
2022/07/09 11:38:00;;;;;;;2.15;1.80;;;;;;;;;;5099277;28;20054;-73
2022/07/09 11:40:27;;;;;;;2.10;1.80;;;;;;;;;;5095929;28;20020;-73
2022/07/09 11:42:53;;;;;;;2.78;2.10;;;;;;;;;;5093234;28;20047;-73
2022/07/09 11:45:26;;;;;;;2.20;2.00;;;;;;;;;;5094762;28;20024;-73
2022/07/09 11:48:12;;;;;;;2.63;2.20;;;;;;;;;;5086221;28;20509;-72
2022/07/09 11:50:43;;;;;;;2.40;2.00;;;;;;;;;;5097035;28;20042;-73
2022/07/09 11:53:19;;;;;;;2.08;1.88;;;;;;;;;;5091843;28;20056;-72
2022/07/09 11:55:57;;;;;;;1.85;1.75;;;;;;;;;;5105490;28;20390;-71
2022/07/09 11:58:23;;;;;;;2.10;1.90;;;;;;;;;;5090385;28;20431;-73
2022/07/09 12:00:49;;;;;;;2.10;1.90;;;;;;;;;;5091846;28;20658;-72
2022/07/09 12:03:24;;;;;;;2.13;1.92;;;;;;;;;;5097784;28;20033;-73
2022/07/09 12:05:51;;;;;;;2.13;1.70;;;;;;;;;;5097361;28;20028;-73
2022/07/09 12:08:27;;;;;;;2.03;1.85;;;;;;;;;;5095725;28;20120;-73
2022/07/09 12:10:53;;;;;;;1.90;1.80;;;;;;;;;;5089906;28;20060;-75
2022/07/09 12:13:19;;;;;;;2.40;1.95;;;;;;;;;;5088041;28;20060;-73
2022/07/09 12:15:45;;;;;;;2.10;1.90;;;;;;;;;;5089459;28;20102;-73
2022/07/09 12:18:11;;;;;;;3.72;3.08;;;;;;;;;;5083724;28;20035;-73
2022/07/09 12:20:37;;;;;;;2.40;2.20;;;;;;;;;;5093551;28;20105;-73
2022/07/09 12:23:04;;;;;;;2.65;2.28;;;;;;;;;;5092391;28;20363;-72
2022/07/09 12:25:30;;;;;;;2.17;1.85;;;;;;;;;;5091480;28;20039;-75
2022/07/09 12:27:56;;;;;;;2.30;2.00;;;;;;;;;;5092026;28;20034;-72
2022/07/09 12:30:22;;;;;;;2.10;1.90;;;;;;;;;;5087260;28;20497;-75
2022/07/09 12:32:48;;;;;;;2.10;1.90;;;;;;;;;;5093967;28;20023;-72
2022/07/09 12:35:14;;;;;;;2.53;2.10;;;;;;;;;;5090090;28;20032;-73
2022/07/09 12:37:40;;;;;;;2.10;1.90;;;;;;;;;;5091136;28;20484;-72
2022/07/09 12:40:09;;;;;;;3.50;2.05;;;;;;;;;;5092663;28;20019;-71
2022/07/09 12:42:35;;;;;;;2.25;2.00;;;;;;;;;;5090300;28;20051;-72
2022/07/09 12:45:01;;;;;;;2.42;2.10;;;;;;;;;;5096476;28;20039;-71
2022/07/09 12:47:27;;;;;;;2.80;2.10;;;;;;;;;;5090359;28;20366;-73
2022/07/09 12:49:53;;;;;;;2.40;2.10;;;;;;;;;;5088207;28;20028;-74
2022/07/09 12:52:20;;;;;;;2.25;2.05;;;;;;;;;;5089420;28;20031;-73
2022/07/09 12:54:46;;;;;;;2.67;2.20;;;;;;;;;;5091397;28;20024;-73
2022/07/09 12:57:12;;;;;;;3.22;1.92;;;;;;;;;;5096848;28;20611;-72
2022/07/09 12:59:38;;;;;;;2.10;1.90;;;;;;;;;;5096029;28;20059;-72
2022/07/09 13:02:04;;;;;;;2.50;2.28;;;;;;;;;;5091127;28;20027;-73
2022/07/09 13:04:31;;;;;;;2.90;2.22;;;;;;;;;;5090896;28;20048;-72
2022/07/09 13:06:57;;;;;;;2.05;1.85;;;;;;;;;;5088523;28;20157;-73
2022/07/09 13:09:24;;;;;;;2.05;1.85;;;;;;;;;;5088451;28;20023;-74
2022/07/09 13:11:50;;;;;;;3.65;2.00;;;;;;;;;;5090124;28;21256;-74
2022/07/09 13:14:16;;;;;;;4.30;1.83;;;;;;;;;;5086788;28;20066;-73
2022/07/09 13:16:42;;;;;;;2.97;2.33;;;;;;;;;;5087140;28;20099;-73
2022/07/09 13:19:08;;;;;;;2.20;2.00;;;;;;;;;;5088864;28;20047;-75
2022/07/09 13:21:34;;;;;;;2.10;1.88;;;;;;;;;;5087569;28;20497;-75
2022/07/09 13:24:01;;;;;;;2.55;2.10;;;;;;;;;;5088101;28;20027;-75
2022/07/09 13:26:27;;;;;;;3.15;1.95;;;;;;;;;;5091177;28;20035;-73
2022/07/09 13:28:53;;;;;;;2.60;2.40;;;;;;;;;;5088995;28;20558;-74
2022/07/09 13:31:21;;;;;;;2.22;1.83;;;;;;;;;;5087716;28;20028;-73
2022/07/09 13:33:47;;;;;;;1.80;1.70;;;;;;;;;;5092761;28;20039;-74
2022/07/09 13:36:14;;;;;;;1.83;1.73;;;;;;;;;;5087847;28;20499;-74
2022/07/09 13:38:40;;;;;;;3.08;1.90;;;;;;;;;;5088165;28;20351;-73
2022/07/09 13:41:06;;;;;;;2.58;2.10;;;;;;;;;;5087174;28;20122;-73
2022/07/09 13:43:32;;;;;;;2.10;1.90;;;;;;;;;;5087944;28;20047;-74
2022/07/09 13:45:59;;;;;;;3.80;2.20;;;;;;;;;;5087554;28;20039;-73
2022/07/09 13:48:26;;;;;;;2.10;1.75;;;;;;;;;;5085998;28;20032;-73
2022/07/09 13:50:52;;;;;;;3.63;1.80;;;;;;;;;;5087121;28;20258;-74
2022/07/09 13:53:19;;;;;;;1.70;1.60;;;;;;;;;;5085577;28;20150;-73
2022/07/09 13:55:45;;;;;;;2.67;1.85;;;;;;;;;;5094920;28;20081;-74
2022/07/09 13:58:11;;;;;;;2.15;1.95;;;;;;;;;;5092218;28;20028;-73
2022/07/09 14:00:38;;;;;;;1.90;1.70;;;;;;;;;;5099842;28;20024;-73
2022/07/09 14:03:04;;;;;;;2.25;2.05;;;;;;;;;;5090530;28;20394;-73
2022/07/09 14:05:30;;;;;;;2.40;2.20;;;;;;;;;;5092777;28;20032;-74
2022/07/09 14:07:58;;;;;;;1.92;1.77;;;;;;;;;;5095098;28;20024;-73
2022/07/09 14:10:24;;;;;;;2.10;1.90;;;;;;;;;;5090688;28;20055;-73
2022/07/09 14:12:50;;;;;;;2.80;1.95;;;;;;;;;;5094995;28;20024;-73
2022/07/09 14:15:17;;;;;;;2.88;1.98;;;;;;;;;;5092560;28;20104;-73
2022/07/09 14:17:43;;;;;;;2.30;2.10;;;;;;;;;;5095304;28;20480;-74
2022/07/09 14:20:09;;;;;;;3.20;2.10;;;;;;;;;;5091640;28;20073;-73
2022/07/09 14:22:35;;;;;;;2.67;2.30;;;;;;;;;;5091809;28;20028;-72
2022/07/09 14:25:02;;;;;;;3.13;2.40;;;;;;;;;;5093046;28;20035;-73
2022/07/09 14:27:28;;;;;;;3.70;3.25;;;;;;;;;;5090155;28;20274;-71
2022/07/09 14:29:54;;;;;;;3.42;2.30;;;;;;;;;;5093467;28;20020;-73
2022/07/09 14:32:21;;;;;;;2.42;2.13;;;;;;;;;;5092212;28;20519;-75
2022/07/09 14:34:47;;;;;;;3.85;2.63;;;;;;;;;;5095379;28;20023;-74
2022/07/09 14:37:13;;;;;;;2.42;2.20;;;;;;;;;;5096045;28;20024;-74
2022/07/09 14:39:39;;;;;;;2.42;2.20;;;;;;;;;;5095662;28;20024;-75